createdAt,value
2024-01-06T00:00:13.904Z,164.78
2024-01-06T00:01:13.941Z,163.62
2024-01-06T00:02:13.935Z,164.14
2024-01-06T00:03:13.974Z,165.68
2024-01-06T00:04:14.038Z,167.17
2024-01-06T00:05:13.987Z,163.01
2024-01-06T00:06:14.058Z,165.36
2024-01-06T00:07:14.083Z,163.90
2024-01-06T00:08:14.081Z,163.54
2024-01-06T00:09:14.096Z,163.43
2024-01-06T00:10:17.554Z,163.04
2024-01-06T00:11:14.164Z,170.39
2024-01-06T00:12:14.151Z,165.84
2024-01-06T00:13:14.152Z,166.48
2024-01-06T00:14:14.133Z,167.32
2024-01-06T00:15:14.230Z,165.64
2024-01-06T00:16:14.139Z,162.74
2024-01-06T00:17:14.151Z,166.35
2024-01-06T00:18:14.410Z,166.07
2024-01-06T00:19:14.155Z,166.63
2024-01-06T00:20:14.184Z,163.35
2024-01-06T00:21:14.199Z,162.49
2024-01-06T00:22:14.181Z,166.37
2024-01-06T00:23:14.194Z,166.64
2024-01-06T00:24:14.159Z,166.52
2024-01-06T00:25:14.158Z,164.93
2024-01-06T00:26:14.166Z,165.66
2024-01-06T00:27:14.179Z,165.32
2024-01-06T00:28:14.189Z,165.89
2024-01-06T00:29:14.181Z,166.97
2024-01-06T00:30:14.245Z,166.36
2024-01-06T00:31:14.242Z,166.14
2024-01-06T00:32:14.165Z,166.47
2024-01-06T00:33:14.337Z,167.39
2024-01-06T00:34:14.237Z,165.04
2024-01-06T00:35:14.177Z,163.46
2024-01-06T00:36:14.216Z,164.33
2024-01-06T00:37:14.177Z,165.32
2024-01-06T00:38:14.188Z,165.24
2024-01-06T00:39:14.180Z,166.69
2024-01-06T00:40:14.151Z,166.38
2024-01-06T00:41:14.170Z,167.73
2024-01-06T00:42:14.266Z,166.45
2024-01-06T00:43:14.180Z,165.83
2024-01-06T00:44:14.201Z,166.61
2024-01-06T00:45:14.206Z,167.09
2024-01-06T00:46:14.222Z,166.43
2024-01-06T00:47:14.251Z,167.00
2024-01-06T00:48:14.370Z,168.20
2024-01-06T00:49:14.278Z,168.07
2024-01-06T00:50:14.221Z,166.66
2024-01-06T00:51:14.267Z,167.96
2024-01-06T00:52:14.179Z,166.34
2024-01-06T00:53:14.215Z,165.54
2024-01-06T00:54:14.251Z,166.48
2024-01-06T00:55:14.303Z,167.32
2024-01-06T00:56:14.358Z,166.97
2024-01-06T00:57:14.463Z,167.04
2024-01-06T00:58:14.741Z,167.84
2024-01-06T00:59:14.489Z,167.60
2024-01-06T01:00:14.582Z,168.00
2024-01-06T01:01:14.691Z,167.21
2024-01-06T01:02:14.557Z,164.36
2024-01-06T01:03:14.788Z,166.84
2024-01-06T01:04:14.781Z,168.44
2024-01-06T01:05:14.820Z,165.23
2024-01-06T01:06:14.827Z,167.23
2024-01-06T01:07:14.863Z,167.07
2024-01-06T01:08:15.229Z,166.77
2024-01-06T01:09:14.986Z,166.05
2024-01-06T01:10:15.046Z,165.01
2024-01-06T01:11:15.083Z,166.04
2024-01-06T01:12:15.171Z,166.95
2024-01-06T01:13:15.842Z,166.76
2024-01-06T01:14:15.257Z,165.83
2024-01-06T01:15:15.328Z,165.40
2024-01-06T01:16:15.339Z,166.39
2024-01-06T01:17:15.386Z,167.32
2024-01-06T01:18:16.133Z,163.39
2024-01-06T01:19:15.559Z,167.07
2024-01-06T01:20:15.557Z,165.64
2024-01-06T01:21:15.622Z,166.31
2024-01-06T01:22:15.675Z,166.70
2024-01-06T01:23:15.739Z,166.13
2024-01-06T01:24:15.811Z,166.11
2024-01-06T01:25:15.846Z,164.84
2024-01-06T01:26:15.957Z,163.72
2024-01-06T01:27:16.024Z,164.80
2024-01-06T01:28:16.047Z,167.54
2024-01-06T01:29:16.081Z,167.51
2024-01-06T01:30:16.234Z,166.83
2024-01-06T01:31:16.334Z,167.09
2024-01-06T01:32:17.339Z,164.39
2024-01-06T01:33:16.646Z,164.24
2024-01-06T01:34:16.557Z,164.93
2024-01-06T01:35:16.495Z,165.96
2024-01-06T01:36:16.566Z,166.12
2024-01-06T01:37:16.622Z,163.98
2024-01-06T01:38:16.699Z,164.05
2024-01-06T01:39:16.755Z,163.32
2024-01-06T01:40:16.917Z,165.95
2024-01-06T01:41:16.860Z,163.27
2024-01-06T01:42:16.951Z,163.55
2024-01-06T01:43:16.931Z,164.61
2024-01-06T01:44:16.957Z,166.07
2024-01-06T01:45:17.054Z,164.64
2024-01-06T01:46:17.033Z,163.75
2024-01-06T01:47:17.075Z,164.00
2024-01-06T01:48:17.298Z,163.22
2024-01-06T01:49:17.351Z,163.43
2024-01-06T01:50:17.188Z,163.61
2024-01-06T01:51:17.227Z,163.62
2024-01-06T01:52:17.266Z,163.79
2024-01-06T01:53:17.316Z,162.94
2024-01-06T01:54:17.352Z,164.25
2024-01-06T01:55:17.394Z,164.88
2024-01-06T01:56:17.432Z,163.71
2024-01-06T01:57:17.548Z,163.36
2024-01-06T01:58:17.648Z,163.84
2024-01-06T01:59:17.627Z,164.81
2024-01-06T02:00:17.704Z,163.44
2024-01-06T02:01:17.865Z,163.04
2024-01-06T02:02:17.810Z,163.10
2024-01-06T02:03:17.903Z,162.09
2024-01-06T02:04:17.923Z,163.56
2024-01-06T02:05:18.037Z,163.61
2024-01-06T02:06:18.056Z,161.84
2024-01-06T02:07:18.048Z,162.48
2024-01-06T02:08:18.089Z,160.82
2024-01-06T02:09:18.188Z,161.76
2024-01-06T02:10:18.220Z,162.66
2024-01-06T02:11:18.251Z,162.09
2024-01-06T02:12:18.390Z,162.85
2024-01-06T02:13:18.379Z,163.56
2024-01-06T02:14:18.414Z,163.00
2024-01-06T02:15:18.500Z,160.67
2024-01-06T02:16:18.561Z,161.48
2024-01-06T02:17:18.618Z,160.94
2024-01-06T02:18:18.758Z,162.52
2024-01-06T02:19:18.811Z,162.86
2024-01-06T02:20:18.802Z,162.33
2024-01-06T02:21:18.947Z,161.33
2024-01-06T02:22:18.919Z,160.55
2024-01-06T02:23:18.939Z,161.93
2024-01-06T02:24:19.058Z,162.54
2024-01-06T02:25:19.064Z,162.33
2024-01-06T02:26:19.136Z,163.97
2024-01-06T02:27:19.221Z,162.76
2024-01-06T02:28:19.300Z,161.63
2024-01-06T02:29:19.366Z,160.86
2024-01-06T02:30:19.481Z,161.92
2024-01-06T02:31:19.577Z,163.96
2024-01-06T02:32:19.540Z,162.33
2024-01-06T02:33:19.674Z,161.93
2024-01-06T02:34:19.782Z,160.82
2024-01-06T02:35:19.661Z,159.26
2024-01-06T02:36:19.748Z,158.73
2024-01-06T02:37:19.790Z,160.27
2024-01-06T02:38:19.856Z,160.95
2024-01-06T02:39:19.882Z,160.92
2024-01-06T02:40:19.885Z,160.67
2024-01-06T02:41:19.956Z,161.71
2024-01-06T02:42:20.037Z,160.01
2024-01-06T02:43:20.081Z,161.12
2024-01-06T02:44:20.121Z,157.40
2024-01-06T02:45:20.270Z,160.20
2024-01-06T02:46:20.231Z,157.90
2024-01-06T02:47:20.305Z,159.49
2024-01-06T02:48:20.453Z,159.79
2024-01-06T02:49:20.553Z,157.84
2024-01-06T02:50:20.479Z,159.52
2024-01-06T02:51:20.670Z,158.93
2024-01-06T02:52:20.583Z,160.10
2024-01-06T02:53:20.685Z,160.12
2024-01-06T02:54:20.797Z,159.17
2024-01-06T02:55:20.772Z,159.87
2024-01-06T02:56:20.910Z,160.39
2024-01-06T02:57:20.986Z,158.14
2024-01-06T02:58:21.034Z,158.23
2024-01-06T02:59:21.118Z,156.41
2024-01-06T03:00:21.203Z,159.82
2024-01-06T03:01:21.292Z,158.89
2024-01-06T03:02:21.264Z,159.50
2024-01-06T03:03:21.438Z,159.40
2024-01-06T03:04:21.536Z,159.21
2024-01-06T03:05:21.490Z,156.91
2024-01-06T03:06:21.668Z,159.05
2024-01-06T03:07:21.606Z,157.58
2024-01-06T03:08:21.655Z,159.16
2024-01-06T03:09:21.757Z,159.63
2024-01-06T03:10:21.810Z,155.62
2024-01-06T03:11:21.869Z,158.14
2024-01-06T03:12:21.982Z,157.57
2024-01-06T03:13:22.033Z,157.01
2024-01-06T03:14:22.068Z,155.25
2024-01-06T03:15:22.196Z,156.17
2024-01-06T03:16:22.363Z,156.71
2024-01-06T03:17:22.295Z,156.29
2024-01-06T03:18:22.459Z,155.84
2024-01-06T03:19:22.571Z,156.16
2024-01-06T03:20:22.513Z,157.74
2024-01-06T03:21:22.587Z,158.35
2024-01-06T03:22:22.631Z,156.55
2024-01-06T03:23:22.738Z,153.26
2024-01-06T03:24:22.767Z,156.42
2024-01-06T03:25:22.881Z,154.63
2024-01-06T03:26:22.905Z,155.61
2024-01-06T03:27:22.976Z,157.23
2024-01-06T03:28:23.066Z,156.73
2024-01-06T03:29:23.118Z,154.45
2024-01-06T03:30:23.909Z,155.27
2024-01-06T03:31:23.291Z,155.28
2024-01-06T03:32:23.360Z,155.15
2024-01-06T03:33:23.501Z,152.65
2024-01-06T03:34:23.576Z,155.04
2024-01-06T03:35:23.571Z,155.83
2024-01-06T03:36:23.715Z,154.39
2024-01-06T03:37:23.809Z,153.04
2024-01-06T03:38:23.748Z,153.36
2024-01-06T03:39:23.842Z,154.67
2024-01-06T03:40:23.856Z,153.41
2024-01-06T03:41:23.979Z,154.54
2024-01-06T03:42:24.030Z,153.21
2024-01-06T03:43:24.136Z,153.79
2024-01-06T03:44:24.162Z,152.06
2024-01-06T03:45:24.271Z,152.40
2024-01-06T03:46:24.310Z,150.17
2024-01-06T03:47:24.482Z,152.76
2024-01-06T03:48:24.586Z,151.96
2024-01-06T03:49:24.561Z,150.97
2024-01-06T03:50:24.589Z,152.40
2024-01-06T03:51:24.811Z,150.97
2024-01-06T03:52:24.791Z,152.35
2024-01-06T03:53:26.999Z,152.05
2024-01-06T03:54:25.034Z,151.00
2024-01-06T03:55:25.124Z,150.86
2024-01-06T03:56:25.162Z,152.19
2024-01-06T03:57:25.279Z,150.58
2024-01-06T03:58:25.258Z,151.63
2024-01-06T03:59:25.342Z,148.98
2024-01-06T04:00:25.537Z,151.40
2024-01-06T04:01:25.629Z,151.60
2024-01-06T04:02:25.566Z,150.93
2024-01-06T04:03:25.628Z,151.06
2024-01-06T04:04:25.784Z,151.20
2024-01-06T04:05:25.792Z,151.33
2024-01-06T04:06:25.835Z,149.62
2024-01-06T04:07:25.893Z,148.80
2024-01-06T04:08:25.962Z,151.38
2024-01-06T04:09:26.042Z,150.74
2024-01-06T04:10:26.138Z,150.48
2024-01-06T04:11:26.158Z,151.52
2024-01-06T04:12:26.288Z,150.56
2024-01-06T04:13:26.345Z,150.17
2024-01-06T04:14:26.389Z,147.69
2024-01-06T04:15:26.503Z,150.53
2024-01-06T04:16:26.541Z,149.33
2024-01-06T04:17:26.630Z,149.22
2024-01-06T04:18:27.079Z,149.61
2024-01-06T04:19:26.772Z,150.15
2024-01-06T04:20:26.806Z,149.85
2024-01-06T04:21:26.902Z,147.64
2024-01-06T04:22:26.876Z,149.20
2024-01-06T04:23:26.983Z,148.34
2024-01-06T04:24:27.104Z,147.79
2024-01-06T04:25:27.154Z,146.70
2024-01-06T04:26:27.198Z,149.03
2024-01-06T04:27:27.240Z,148.27
2024-01-06T04:28:27.310Z,146.47
2024-01-06T04:29:27.388Z,149.91
2024-01-06T04:30:27.581Z,148.86
2024-01-06T04:31:27.605Z,146.61
2024-01-06T04:32:27.631Z,149.06
2024-01-06T04:33:27.880Z,148.26
2024-01-06T04:34:27.876Z,147.03
2024-01-06T04:35:27.795Z,148.14
2024-01-06T04:36:27.911Z,150.15
2024-01-06T04:37:35.142Z,50.00
2024-01-06T04:38:35.129Z,50.00
2024-01-06T04:39:37.697Z,50.00
2024-01-06T04:40:35.144Z,50.00
2024-01-06T04:41:35.159Z,50.00
2024-01-06T04:42:35.203Z,50.00
2024-01-06T04:43:35.283Z,50.00
2024-01-06T04:44:35.192Z,50.00
2024-01-06T04:45:35.213Z,51.21
2024-01-06T04:46:35.109Z,52.44
2024-01-06T04:47:35.178Z,50.59
2024-01-06T04:48:35.308Z,50.75
2024-01-06T04:49:35.234Z,52.69
2024-01-06T04:50:35.128Z,53.05
2024-01-06T04:51:35.160Z,52.92
2024-01-06T04:52:35.160Z,51.93
2024-01-06T04:53:35.198Z,51.17
2024-01-06T04:54:35.163Z,53.15
2024-01-06T04:55:35.165Z,52.49
2024-01-06T04:56:36.955Z,52.98
2024-01-06T04:57:35.208Z,55.35
2024-01-06T04:58:35.154Z,51.95
2024-01-06T04:59:35.178Z,52.79
2024-01-06T05:00:35.256Z,50.98
2024-01-06T05:01:35.197Z,51.84
2024-01-06T05:02:35.190Z,53.21
2024-01-06T05:03:35.325Z,54.21
2024-01-06T05:04:35.267Z,52.03
2024-01-06T05:05:35.353Z,52.12
2024-01-06T05:06:35.425Z,52.59
2024-01-06T05:07:35.439Z,52.92
2024-01-06T05:08:35.542Z,53.06
2024-01-06T05:09:35.572Z,52.33
2024-01-06T05:10:35.666Z,52.38
2024-01-06T05:11:35.675Z,52.07
2024-01-06T05:12:35.793Z,51.88
2024-01-06T05:13:35.852Z,52.53
2024-01-06T05:14:35.921Z,52.77
2024-01-06T05:15:36.704Z,52.20
2024-01-06T05:16:36.028Z,52.70
2024-01-06T05:17:37.179Z,52.78
2024-01-06T05:18:36.146Z,52.95
2024-01-06T05:19:36.065Z,53.07
2024-01-06T05:20:36.035Z,53.94
2024-01-06T05:21:36.082Z,52.90
2024-01-06T05:22:36.037Z,52.39
2024-01-06T05:23:36.071Z,53.04
2024-01-06T05:24:36.097Z,54.43
2024-01-06T05:25:36.051Z,51.34
2024-01-06T05:26:36.077Z,51.66
2024-01-06T05:27:36.212Z,52.40
2024-01-06T05:28:36.198Z,56.19
2024-01-06T05:29:36.233Z,52.85
2024-01-06T05:30:36.383Z,51.41
2024-01-06T05:31:36.486Z,51.45
2024-01-06T05:32:36.448Z,52.41
2024-01-06T05:33:36.524Z,51.07
2024-01-06T05:34:36.787Z,54.05
2024-01-06T05:35:36.584Z,52.49
2024-01-06T05:36:36.657Z,51.68
2024-01-06T05:37:36.733Z,52.02
2024-01-06T05:38:36.796Z,53.05
2024-01-06T05:39:36.904Z,53.58
2024-01-06T05:40:36.921Z,52.72
2024-01-06T05:41:37.017Z,51.89
2024-01-06T05:42:37.098Z,55.00
2024-01-06T05:43:37.119Z,52.88
2024-01-06T05:44:37.164Z,53.70
2024-01-06T05:45:37.258Z,51.11
2024-01-06T05:46:37.320Z,54.39
2024-01-06T05:47:37.550Z,53.71
2024-01-06T05:48:37.561Z,51.52
2024-01-06T05:49:37.588Z,53.88
2024-01-06T05:50:37.555Z,51.00
2024-01-06T05:51:37.631Z,54.09
2024-01-06T05:52:37.651Z,53.78
2024-01-06T05:53:37.725Z,54.41
2024-01-06T05:54:37.858Z,54.34
2024-01-06T05:55:37.903Z,52.95
2024-01-06T05:56:37.931Z,53.93
2024-01-06T05:57:37.996Z,53.34
2024-01-06T05:58:38.055Z,53.62
2024-01-06T05:59:38.114Z,53.70
2024-01-06T06:00:38.195Z,53.48
2024-01-06T06:01:38.241Z,54.79
2024-01-06T06:02:38.263Z,55.17
2024-01-06T06:03:38.396Z,52.76
2024-01-06T06:04:38.473Z,54.37
2024-01-06T06:05:38.440Z,52.18
2024-01-06T06:06:38.542Z,53.36
2024-01-06T06:07:38.542Z,52.27
2024-01-06T06:08:38.643Z,52.21
2024-01-06T06:09:38.679Z,52.79
2024-01-06T06:10:38.832Z,54.18
2024-01-06T06:11:38.846Z,52.84
2024-01-06T06:12:38.861Z,52.52
2024-01-06T06:13:38.919Z,54.00
2024-01-06T06:14:38.952Z,51.53
2024-01-06T06:15:39.084Z,53.28
2024-01-06T06:16:39.113Z,53.90
2024-01-06T06:17:39.334Z,53.86
2024-01-06T06:18:39.362Z,52.64
2024-01-06T06:19:39.490Z,52.76
2024-01-06T06:20:39.331Z,52.07
2024-01-06T06:21:39.432Z,53.13
2024-01-06T06:22:39.460Z,53.67
2024-01-06T06:23:39.531Z,51.09
2024-01-06T06:24:39.600Z,55.33
2024-01-06T06:25:39.678Z,51.16
2024-01-06T06:26:42.264Z,52.11
2024-01-06T06:27:39.920Z,52.59
2024-01-06T06:28:39.690Z,52.40
2024-01-06T06:29:39.692Z,54.50
2024-01-06T06:30:39.745Z,52.86
2024-01-06T06:31:39.784Z,53.68
2024-01-06T06:32:39.769Z,53.49
2024-01-06T06:33:39.849Z,52.50
2024-01-06T06:34:39.698Z,52.23
2024-01-06T06:35:39.669Z,53.34
2024-01-06T06:36:39.818Z,52.38
2024-01-06T06:37:39.684Z,52.98
2024-01-06T06:38:39.745Z,53.32
2024-01-06T06:39:39.761Z,52.32
2024-01-06T06:40:39.728Z,52.99
2024-01-06T06:41:39.720Z,53.33
2024-01-06T06:42:39.771Z,52.97
2024-01-06T06:43:39.748Z,53.06
2024-01-06T06:44:39.704Z,53.14
2024-01-06T06:45:39.735Z,54.14
2024-01-06T06:46:39.714Z,53.87
2024-01-06T06:47:39.865Z,54.13
2024-01-06T06:48:39.851Z,53.34
2024-01-06T06:49:39.824Z,52.91
2024-01-06T06:50:40.312Z,55.30
2024-01-06T06:51:39.795Z,52.24
2024-01-06T06:52:39.766Z,52.79
2024-01-06T06:53:39.768Z,53.86
2024-01-06T06:54:39.775Z,52.58
2024-01-06T06:55:39.803Z,51.44
2024-01-06T06:56:39.710Z,53.06
2024-01-06T06:57:39.771Z,52.43
2024-01-06T06:58:39.745Z,53.11
2024-01-06T06:59:39.764Z,52.15
2024-01-06T07:00:39.949Z,53.51
2024-01-06T07:01:39.740Z,52.54
2024-01-06T07:02:39.782Z,51.08
2024-01-06T07:03:39.807Z,52.14
2024-01-06T07:04:39.805Z,53.24
2024-01-06T07:05:39.914Z,53.08
2024-01-06T07:06:39.958Z,50.38
2024-01-06T07:07:39.984Z,52.19
2024-01-06T07:08:40.101Z,54.90
2024-01-06T07:09:40.157Z,54.59
2024-01-06T07:10:40.179Z,53.51
2024-01-06T07:11:40.287Z,52.78
2024-01-06T07:12:40.413Z,52.36
2024-01-06T07:13:40.411Z,56.11
2024-01-06T07:14:40.466Z,55.10
2024-01-06T07:15:40.552Z,54.10
2024-01-06T07:16:40.597Z,54.64
2024-01-06T07:17:40.793Z,54.26
2024-01-06T07:18:40.839Z,54.13
2024-01-06T07:19:40.837Z,54.82
2024-01-06T07:20:40.822Z,53.97
2024-01-06T07:21:40.946Z,53.16
2024-01-06T07:22:40.986Z,54.26
2024-01-06T07:23:41.022Z,54.75
2024-01-06T07:24:41.135Z,54.46
2024-01-06T07:25:41.169Z,53.03
2024-01-06T07:26:41.252Z,55.41
2024-01-06T07:27:41.331Z,54.17
2024-01-06T07:28:41.399Z,54.10
2024-01-06T07:29:41.442Z,52.23
2024-01-06T07:30:41.542Z,54.24
2024-01-06T07:31:41.723Z,52.71
2024-01-06T07:32:41.652Z,52.04
2024-01-06T07:33:41.783Z,52.92
2024-01-06T07:34:41.774Z,52.84
2024-01-06T07:35:41.793Z,55.68
2024-01-06T07:36:41.890Z,56.36
2024-01-06T07:37:41.975Z,55.15
2024-01-06T07:38:42.022Z,54.00
2024-01-06T07:39:49.419Z,50.00
2024-01-06T07:40:49.268Z,50.00
2024-01-06T07:41:49.285Z,50.00
2024-01-06T07:42:49.434Z,50.00
2024-01-06T07:43:49.299Z,50.00
2024-01-06T07:44:49.254Z,51.33
2024-01-06T07:45:49.310Z,51.68
2024-01-06T07:46:49.268Z,50.08
2024-01-06T07:47:49.339Z,50.00
2024-01-06T07:48:49.348Z,50.86
2024-01-06T07:49:49.343Z,51.50
2024-01-06T07:50:49.285Z,51.94
2024-01-06T07:51:49.399Z,50.95
2024-01-06T07:52:49.269Z,52.73
2024-01-06T07:53:49.323Z,51.48
2024-01-06T07:54:49.359Z,51.49
2024-01-06T07:55:49.275Z,52.81
2024-01-06T07:56:49.281Z,53.38
2024-01-06T07:57:49.327Z,51.47
2024-01-06T07:58:49.409Z,52.27
2024-01-06T07:59:49.469Z,52.15
2024-01-06T08:00:49.710Z,52.24
2024-01-06T08:01:49.608Z,52.13
2024-01-06T08:02:49.625Z,54.17
2024-01-06T08:03:49.804Z,50.81
2024-01-06T08:04:50.033Z,51.49
2024-01-06T08:05:49.891Z,52.68
2024-01-06T08:06:51.279Z,54.24
2024-01-06T08:07:49.976Z,52.85
2024-01-06T08:08:50.077Z,53.24
2024-01-06T08:09:50.118Z,52.19
2024-01-06T08:10:50.186Z,53.58
2024-01-06T08:11:50.252Z,52.45
2024-01-06T08:12:50.330Z,52.73
2024-01-06T08:13:50.433Z,52.96
2024-01-06T08:14:50.485Z,52.09
2024-01-06T08:15:50.708Z,53.06
2024-01-06T08:16:50.608Z,52.26
2024-01-06T08:17:50.924Z,53.14
2024-01-06T08:18:50.850Z,52.83
2024-01-06T08:19:51.010Z,53.40
2024-01-06T08:20:50.872Z,52.17
2024-01-06T08:21:50.985Z,52.09
2024-01-06T08:22:51.104Z,53.42
2024-01-06T08:23:51.114Z,52.13
2024-01-06T08:24:51.289Z,51.15
2024-01-06T08:25:51.206Z,52.07
2024-01-06T08:26:51.281Z,53.41
2024-01-06T08:27:51.398Z,54.03
2024-01-06T08:28:51.418Z,52.85
2024-01-06T08:29:51.529Z,53.35
2024-01-06T08:30:51.770Z,53.62
2024-01-06T08:31:51.760Z,54.96
2024-01-06T08:32:51.733Z,51.74
2024-01-06T08:33:51.965Z,52.26
2024-01-06T08:34:51.874Z,51.90
2024-01-06T08:35:51.871Z,52.11
2024-01-06T08:36:52.039Z,53.41
2024-01-06T08:37:51.992Z,51.03
2024-01-06T08:38:52.078Z,54.30
2024-01-06T08:39:52.181Z,52.29
2024-01-06T08:40:52.228Z,52.77
2024-01-06T08:41:52.308Z,54.87
2024-01-06T08:42:52.404Z,53.85
2024-01-06T08:43:52.428Z,54.38
2024-01-06T08:44:52.497Z,52.62
2024-01-06T08:45:52.743Z,55.12
2024-01-06T08:46:52.641Z,54.16
2024-01-06T08:47:52.807Z,52.18
2024-01-06T08:48:52.926Z,50.72
2024-01-06T08:49:53.029Z,53.68
2024-01-06T08:50:52.940Z,51.53
2024-01-06T08:51:53.019Z,52.03
2024-01-06T08:52:52.994Z,52.87
2024-01-06T08:53:53.110Z,52.77
2024-01-06T08:54:53.208Z,50.45
2024-01-06T08:55:53.225Z,53.12
2024-01-06T08:56:53.278Z,51.72
2024-01-06T08:57:53.379Z,51.78
2024-01-06T08:58:53.405Z,51.02
2024-01-06T08:59:53.453Z,51.74
2024-01-06T09:00:53.630Z,53.49
2024-01-06T09:01:53.658Z,52.93
2024-01-06T09:02:53.652Z,51.63
2024-01-06T09:03:53.804Z,55.25
2024-01-06T09:04:53.813Z,53.14
2024-01-06T09:05:53.978Z,52.77
2024-01-06T09:06:53.996Z,53.34
2024-01-06T09:07:55.328Z,52.32
2024-01-06T09:08:54.088Z,53.55
2024-01-06T09:09:54.302Z,53.67
2024-01-06T09:10:54.196Z,53.16
2024-01-06T09:11:54.322Z,53.37
2024-01-06T09:12:54.441Z,52.07
2024-01-06T09:13:54.427Z,53.22
2024-01-06T09:14:54.480Z,51.58
2024-01-06T09:15:54.697Z,52.77
2024-01-06T09:16:54.590Z,53.35
2024-01-06T09:17:54.713Z,54.14
2024-01-06T09:18:54.883Z,51.10
2024-01-06T09:19:54.836Z,51.37
2024-01-06T09:20:54.882Z,52.86
2024-01-06T09:21:54.997Z,53.05
2024-01-06T09:22:54.993Z,52.37
2024-01-06T09:23:55.052Z,52.81
2024-01-06T09:24:55.235Z,54.14
2024-01-06T09:25:55.246Z,51.75
2024-01-06T09:26:55.282Z,52.10
2024-01-06T09:27:55.538Z,52.53
2024-01-06T09:28:55.453Z,53.91
2024-01-06T09:29:55.465Z,54.31
2024-01-06T09:30:56.477Z,54.56
2024-01-06T09:31:55.601Z,54.31
2024-01-06T09:32:55.699Z,52.40
2024-01-06T09:33:55.743Z,51.59
2024-01-06T09:34:55.941Z,51.42
2024-01-06T09:35:55.899Z,52.32
2024-01-06T09:36:56.091Z,52.34
2024-01-06T09:37:55.990Z,54.18
2024-01-06T09:38:56.090Z,52.99
2024-01-06T09:39:56.180Z,54.38
2024-01-06T09:40:56.198Z,52.09
2024-01-06T09:41:56.305Z,54.34
2024-01-06T09:42:56.475Z,53.58
2024-01-06T09:43:56.401Z,53.12
2024-01-06T09:44:56.454Z,52.86
2024-01-06T09:45:56.592Z,52.54
2024-01-06T09:46:56.550Z,51.59
2024-01-06T09:47:56.697Z,53.18
2024-01-06T09:48:56.943Z,52.43
2024-01-06T09:49:56.962Z,50.56
2024-01-06T09:50:56.859Z,50.45
2024-01-06T09:51:57.029Z,51.92
2024-01-06T09:52:56.941Z,53.26
2024-01-06T09:53:57.018Z,52.91
2024-01-06T09:54:57.465Z,53.60
2024-01-06T09:55:57.180Z,53.19
2024-01-06T09:56:57.240Z,55.81
2024-01-06T09:57:57.430Z,52.01
2024-01-06T09:58:57.455Z,53.44
2024-01-06T09:59:57.426Z,51.10
2024-01-06T10:00:57.519Z,53.25
2024-01-06T10:01:57.616Z,53.49
2024-01-06T10:02:57.646Z,51.35
2024-01-06T10:03:57.795Z,52.37
2024-01-06T10:04:57.818Z,53.69
2024-01-06T10:05:57.842Z,52.57
2024-01-06T10:06:57.979Z,52.06
2024-01-06T10:07:58.002Z,53.66
2024-01-06T10:08:58.046Z,53.33
2024-01-06T10:09:58.139Z,51.53
2024-01-06T10:10:58.150Z,54.80
2024-01-06T10:11:58.222Z,53.14
2024-01-06T10:12:58.293Z,53.01
2024-01-06T10:13:58.371Z,54.92
2024-01-06T10:14:58.414Z,53.11
2024-01-06T10:15:58.563Z,55.92
2024-01-06T10:16:58.556Z,52.66
2024-01-06T10:17:58.691Z,52.17
2024-01-06T10:18:58.796Z,54.53
2024-01-06T10:19:58.938Z,52.93
2024-01-06T10:20:58.812Z,55.00
2024-01-06T10:21:58.954Z,55.52
2024-01-06T10:22:59.074Z,55.93
2024-01-06T10:23:59.021Z,54.99
2024-01-06T10:24:59.107Z,54.06
2024-01-06T10:26:01.089Z,53.47
2024-01-06T10:26:59.161Z,56.17
2024-01-06T10:27:59.178Z,57.11
2024-01-06T10:28:59.168Z,55.76
2024-01-06T10:29:59.173Z,55.11
2024-01-06T10:30:59.315Z,54.56
2024-01-06T10:31:59.147Z,55.65
2024-01-06T10:32:59.179Z,55.90
2024-01-06T10:33:59.279Z,52.55
2024-01-06T10:34:59.149Z,53.65
2024-01-06T10:35:59.159Z,52.95
2024-01-06T10:36:59.252Z,55.43
2024-01-06T10:37:59.152Z,54.40
2024-01-06T10:38:59.155Z,55.29
2024-01-06T10:39:59.187Z,54.23
2024-01-06T10:40:59.140Z,55.79
2024-01-06T10:41:59.149Z,53.95
2024-01-06T10:42:59.224Z,53.14
2024-01-06T10:43:59.184Z,53.54
2024-01-06T10:44:59.180Z,55.00
2024-01-06T10:45:59.392Z,54.11
2024-01-06T10:46:59.182Z,55.83
2024-01-06T10:47:59.235Z,53.76
2024-01-06T10:48:59.248Z,54.79
2024-01-06T10:50:01.598Z,54.23
2024-01-06T10:50:59.204Z,54.99
2024-01-06T10:51:59.196Z,58.28
2024-01-06T10:52:59.168Z,54.63
2024-01-06T10:53:59.181Z,52.02
2024-01-06T10:54:59.241Z,54.94
2024-01-06T10:55:59.190Z,56.25
2024-01-06T10:56:59.178Z,54.58
2024-01-06T10:57:59.247Z,54.29
2024-01-06T10:58:59.188Z,55.34
2024-01-06T10:59:59.176Z,55.64
2024-01-06T11:00:59.247Z,55.91
2024-01-06T11:01:59.248Z,52.85
2024-01-06T11:02:59.221Z,52.77
2024-01-06T11:03:59.305Z,52.84
2024-01-06T11:04:59.196Z,54.55
2024-01-06T11:05:59.222Z,56.17
2024-01-06T11:06:59.235Z,54.01
2024-01-06T11:07:59.184Z,55.50
2024-01-06T11:08:59.451Z,51.84
2024-01-06T11:09:59.200Z,53.89
2024-01-06T11:10:59.169Z,53.97
2024-01-06T11:11:59.207Z,53.44
2024-01-06T11:12:59.220Z,54.49
2024-01-06T11:13:59.217Z,52.83
2024-01-06T11:14:59.196Z,52.31
2024-01-06T11:15:59.311Z,55.05
2024-01-06T11:16:59.224Z,55.39
2024-01-06T11:17:59.524Z,52.47
2024-01-06T11:18:59.341Z,52.83
2024-01-06T11:19:59.380Z,55.06
2024-01-06T11:20:59.210Z,55.21
2024-01-06T11:21:59.331Z,52.92
2024-01-06T11:22:59.218Z,55.52
2024-01-06T11:23:59.219Z,54.64
2024-01-06T11:24:59.339Z,53.66
2024-01-06T11:25:59.234Z,53.86
2024-01-06T11:26:59.208Z,53.96
2024-01-06T11:27:59.362Z,54.40
2024-01-06T11:28:59.326Z,54.62
2024-01-06T11:29:59.484Z,53.47
2024-01-06T11:30:59.520Z,53.52
2024-01-06T11:31:59.694Z,51.25
2024-01-06T11:32:59.685Z,53.40
2024-01-06T11:33:59.756Z,56.08
2024-01-06T11:34:59.820Z,55.22
2024-01-06T11:35:59.812Z,53.16
2024-01-06T11:36:59.914Z,53.72
2024-01-06T11:37:59.938Z,53.44
2024-01-06T11:39:00.046Z,54.09
2024-01-06T11:40:00.156Z,54.05
2024-01-06T11:41:00.192Z,52.82
2024-01-06T11:42:00.268Z,52.54
2024-01-06T11:43:00.432Z,52.25
2024-01-06T11:44:00.393Z,51.16
2024-01-06T11:45:00.549Z,52.47
2024-01-06T11:46:00.548Z,52.69
2024-01-06T11:47:00.570Z,54.56
2024-01-06T11:48:00.741Z,53.72
2024-01-06T11:49:00.829Z,51.94
2024-01-06T11:50:00.853Z,52.10
2024-01-06T11:51:00.852Z,52.98
2024-01-06T11:52:00.976Z,54.87
2024-01-06T11:53:01.089Z,53.86
2024-01-06T11:54:01.436Z,53.92
2024-01-06T11:55:01.224Z,54.21
2024-01-06T11:56:01.180Z,52.20
2024-01-06T11:57:01.261Z,50.98
2024-01-06T11:58:01.361Z,53.89
2024-01-06T11:59:01.353Z,53.41
2024-01-06T12:00:01.428Z,54.64
2024-01-06T12:01:01.668Z,53.62
2024-01-06T12:02:01.653Z,54.15
2024-01-06T12:03:01.599Z,55.71
2024-01-06T12:04:01.773Z,53.89
2024-01-06T12:05:01.821Z,54.36
2024-01-06T12:06:01.887Z,54.49
2024-01-06T12:07:01.932Z,53.61
2024-01-06T12:08:01.983Z,54.21
2024-01-06T12:09:02.045Z,56.28
2024-01-06T12:10:02.247Z,54.67
2024-01-06T12:11:02.214Z,54.72
2024-01-06T12:12:02.261Z,54.62
2024-01-06T12:13:02.367Z,55.12
2024-01-06T12:14:02.388Z,56.06
2024-01-06T12:15:02.449Z,54.85
2024-01-06T12:16:02.618Z,52.43
2024-01-06T12:17:02.582Z,54.65
2024-01-06T12:18:02.687Z,53.12
2024-01-06T12:19:02.774Z,55.26
2024-01-06T12:20:02.917Z,52.96
2024-01-06T12:21:02.980Z,53.67
2024-01-06T12:22:03.013Z,55.02
2024-01-06T12:23:02.991Z,55.21
2024-01-06T12:24:03.027Z,55.30
2024-01-06T12:25:03.102Z,57.07
2024-01-06T12:26:03.132Z,53.95
2024-01-06T12:27:03.253Z,54.03
2024-01-06T12:28:03.333Z,52.99
2024-01-06T12:29:03.462Z,51.91
2024-01-06T12:30:03.434Z,55.23
2024-01-06T12:31:03.662Z,54.00
2024-01-06T12:32:03.604Z,54.13
2024-01-06T12:33:03.704Z,54.24
2024-01-06T12:34:03.894Z,53.49
2024-01-06T12:35:03.741Z,54.03
2024-01-06T12:36:10.406Z,54.43
2024-01-06T12:37:05.089Z,54.55
2024-01-06T12:38:03.883Z,54.79
2024-01-06T12:39:03.971Z,54.73
2024-01-06T12:40:03.858Z,55.44
2024-01-06T12:41:03.847Z,55.73
2024-01-06T12:42:03.893Z,53.41
2024-01-06T12:43:03.966Z,56.13
2024-01-06T12:44:03.828Z,55.94